createdAt,value
2023-01-03T00:00:46.548Z,18.08
2023-01-03T00:01:49.392Z,21.60
2023-01-03T00:02:51.277Z,23.50
2023-01-03T00:03:55.789Z,19.02
2023-01-03T00:04:57.621Z,16.08
2023-01-03T00:05:59.417Z,17.50
2023-01-03T00:07:01.163Z,19.73
2023-01-03T00:08:03.167Z,19.20
2023-01-03T00:09:09.506Z,16.85
2023-01-03T00:10:11.314Z,18.70
2023-01-03T00:11:15.333Z,17.30
2023-01-03T00:12:30.801Z,16.92
2023-01-03T00:13:33.108Z,17.80
2023-01-03T00:14:38.083Z,19.20
2023-01-03T00:15:39.890Z,17.63
2023-01-03T00:16:42.070Z,18.58
2023-01-03T00:17:44.220Z,16.00
2023-01-03T00:18:46.604Z,20.95
2023-01-03T00:19:48.859Z,18.42
2023-01-03T00:20:50.613Z,16.58
2023-01-03T00:21:52.916Z,16.73
2023-01-03T00:22:54.727Z,16.83
2023-01-03T00:23:56.558Z,17.50
2023-01-03T00:24:58.365Z,18.35
2023-01-03T00:26:00.107Z,15.80
2023-01-03T00:27:02.245Z,16.10
2023-01-03T00:28:04.190Z,18.20
2023-01-03T00:29:05.952Z,18.15
2023-01-03T00:30:08.299Z,16.23
2023-01-03T00:31:12.525Z,18.45
2023-01-03T00:32:14.755Z,17.00
2023-01-03T00:33:16.491Z,19.58
2023-01-03T00:34:18.477Z,18.95
2023-01-03T00:35:20.221Z,18.38
2023-01-03T00:36:22.227Z,16.02
2023-01-03T00:37:23.969Z,16.85
2023-01-03T00:38:25.751Z,17.20
2023-01-03T00:39:27.800Z,19.88
2023-01-03T00:40:29.580Z,20.95
2023-01-03T00:41:31.456Z,21.35
2023-01-03T00:42:53.220Z,22.00
2023-01-03T00:43:54.990Z,22.70
2023-01-03T00:44:56.669Z,22.98
2023-01-03T00:45:58.962Z,22.40
2023-01-03T00:47:00.718Z,22.33
2023-01-03T00:48:02.506Z,23.80
2023-01-03T00:49:05.139Z,27.83
2023-01-03T00:50:07.264Z,22.92
2023-01-03T00:51:13.909Z,32.22
2023-01-03T00:52:15.675Z,30.45
2023-01-03T00:53:17.381Z,28.02
2023-01-03T00:54:19.427Z,30.60
2023-01-03T00:55:21.148Z,27.58
2023-01-03T00:56:25.295Z,28.15
2023-01-03T00:57:26.981Z,27.42
2023-01-03T00:58:31.335Z,27.13
2023-01-03T00:59:33.096Z,22.52
2023-01-03T01:00:34.816Z,30.83
2023-01-03T01:01:47.570Z,25.52
2023-01-03T01:02:53.991Z,28.33
2023-01-03T01:04:26.768Z,24.88
2023-01-03T01:05:31.651Z,21.23
2023-01-03T01:06:36.412Z,26.75
2023-01-03T01:07:38.150Z,22.25
2023-01-03T01:08:39.946Z,25.05
2023-01-03T01:09:41.657Z,29.33
2023-01-03T01:11:02.041Z,26.20
2023-01-03T01:12:05.394Z,29.35
2023-01-03T01:13:07.081Z,24.13
2023-01-03T01:14:22.550Z,25.60
2023-01-03T01:15:24.309Z,23.02
2023-01-03T01:16:28.937Z,24.92
2023-01-03T01:17:30.911Z,25.70
2023-01-03T01:18:32.740Z,22.60
2023-01-03T01:19:40.309Z,28.42
2023-01-03T01:20:42.011Z,29.80
2023-01-03T01:21:44.490Z,25.13
2023-01-03T01:22:46.214Z,21.95
2023-01-03T01:23:48.303Z,26.13
2023-01-03T01:24:50.059Z,28.10
2023-01-03T01:25:51.854Z,26.45
2023-01-03T01:26:54.000Z,27.10
2023-01-03T01:27:55.704Z,24.88
2023-01-03T01:28:57.421Z,26.60
2023-01-03T01:29:59.160Z,25.02
2023-01-03T01:31:05.764Z,24.67
2023-01-03T01:32:07.855Z,28.08
2023-01-03T01:33:09.573Z,26.35
2023-01-03T01:34:12.390Z,26.33
2023-01-03T01:35:14.146Z,25.08
2023-01-03T01:36:19.916Z,23.00
2023-01-03T01:37:21.609Z,24.58
2023-01-03T01:38:24.077Z,25.95
2023-01-03T01:39:27.949Z,34.08
2023-01-03T01:40:31.349Z,31.80
2023-01-03T01:41:54.142Z,29.20
2023-01-03T01:43:14.696Z,25.65
2023-01-03T01:44:55.600Z,25.42
2023-01-03T01:45:57.509Z,25.00
2023-01-03T01:46:59.307Z,20.35
2023-01-03T01:48:06.554Z,23.85
2023-01-03T01:49:26.292Z,20.35
2023-01-03T01:50:52.459Z,29.75
2023-01-03T01:51:54.321Z,22.13
2023-01-03T01:53:02.094Z,25.42
2023-01-03T01:54:06.679Z,20.58
2023-01-03T01:55:13.308Z,23.95
2023-01-03T01:56:20.879Z,21.23
2023-01-03T01:57:25.930Z,26.65
2023-01-03T01:58:43.604Z,25.30
2023-01-03T01:59:45.860Z,23.55
2023-01-03T02:00:47.609Z,22.98
2023-01-03T02:01:50.301Z,23.50
2023-01-03T02:02:53.637Z,25.92
2023-01-03T02:04:21.943Z,23.58
2023-01-03T02:05:23.867Z,22.48
2023-01-03T02:06:25.671Z,23.83
2023-01-03T02:07:27.393Z,20.33
2023-01-03T02:08:29.119Z,20.92
2023-01-03T02:09:33.530Z,27.85
2023-01-03T02:11:05.846Z,22.48
2023-01-03T02:12:47.634Z,23.20
2023-01-03T02:14:13.346Z,22.45
2023-01-03T02:15:33.720Z,23.80
2023-01-03T02:17:14.518Z,25.25
2023-01-03T02:19:05.707Z,23.50
2023-01-03T02:20:32.086Z,26.95
2023-01-03T02:22:24.716Z,27.83
2023-01-03T02:23:32.341Z,29.30
2023-01-03T02:25:11.311Z,29.90
2023-01-03T02:26:18.818Z,29.70
2023-01-03T02:27:52.693Z,23.60
2023-01-03T02:29:24.721Z,26.08
2023-01-03T02:30:57.109Z,24.92
2023-01-03T02:31:58.932Z,28.80
2023-01-03T02:33:06.685Z,24.85
2023-01-03T02:34:17.388Z,20.52
2023-01-03T02:35:30.572Z,13.38
2023-01-03T02:36:48.056Z,14.98
2023-01-03T02:38:08.965Z,15.88
2023-01-03T02:39:29.449Z,11.02
2023-01-03T02:40:31.110Z,12.60
2023-01-03T02:41:38.673Z,16.40
2023-01-03T02:42:58.701Z,14.40
2023-01-03T02:44:10.759Z,13.70
2023-01-03T02:45:30.328Z,12.30
2023-01-03T02:46:44.769Z,11.85
2023-01-03T02:47:54.922Z,14.88
2023-01-03T02:49:13.570Z,14.00
2023-01-03T02:50:15.929Z,12.43
2023-01-03T02:51:29.388Z,12.05
2023-01-03T02:52:32.559Z,11.25
2023-01-03T02:53:39.385Z,10.15
2023-01-03T02:54:46.559Z,38.30
2023-01-03T02:55:52.484Z,13.30
2023-01-03T02:57:23.258Z,15.20
2023-01-03T02:58:30.453Z,13.35
2023-01-03T02:59:49.518Z,11.48
2023-01-03T03:00:56.084Z,14.82
2023-01-03T03:01:59.040Z,11.75
2023-01-03T03:03:06.642Z,11.25
2023-01-03T03:04:08.536Z,12.93
2023-01-03T03:05:15.403Z,15.27
2023-01-03T03:06:25.975Z,11.65
2023-01-03T03:07:35.779Z,15.50
2023-01-03T03:08:37.918Z,13.38
2023-01-03T03:09:59.601Z,13.05
2023-01-03T03:11:19.851Z,13.10
2023-01-03T03:12:42.312Z,15.65
2023-01-03T03:13:46.536Z,14.13
2023-01-03T03:14:52.595Z,17.05
2023-01-03T03:16:00.324Z,13.48
2023-01-03T03:17:08.343Z,17.20
2023-01-03T03:18:17.074Z,27.92
2023-01-03T03:19:46.483Z,24.73
2023-01-03T03:21:07.002Z,25.00
2023-01-03T03:22:53.448Z,23.02
2023-01-03T03:24:26.386Z,22.75
2023-01-03T03:25:36.098Z,22.33
2023-01-03T03:26:42.808Z,22.42
2023-01-03T03:28:07.772Z,23.58
2023-01-03T03:29:15.974Z,25.92
2023-01-03T03:30:22.091Z,23.70
2023-01-03T03:31:35.504Z,24.30
2023-01-03T03:32:41.797Z,23.40
2023-01-03T03:33:54.268Z,26.65
2023-01-03T03:34:57.910Z,20.52
2023-01-03T03:36:16.079Z,24.63
2023-01-03T03:37:21.856Z,23.55
2023-01-03T03:38:31.996Z,24.08
2023-01-03T03:39:53.283Z,26.67
2023-01-03T03:41:25.846Z,22.75
2023-01-03T03:42:55.012Z,25.85
2023-01-03T03:44:28.433Z,23.67
2023-01-03T03:45:41.190Z,24.35
2023-01-03T03:46:54.722Z,20.05
2023-01-03T03:48:25.947Z,19.33
2023-01-03T03:49:39.231Z,16.50
2023-01-03T03:50:48.209Z,17.55
2023-01-03T03:51:51.015Z,20.30
2023-01-03T03:52:57.513Z,20.60
2023-01-03T03:54:04.394Z,17.88
2023-01-03T03:55:58.639Z,17.60
2023-01-03T03:57:31.471Z,19.65
2023-01-03T03:58:46.897Z,19.38
2023-01-03T03:59:53.520Z,20.77
2023-01-03T04:00:56.758Z,20.05
2023-01-03T04:02:01.520Z,19.15
2023-01-03T04:03:06.768Z,17.85
2023-01-03T04:04:16.115Z,19.25
2023-01-03T04:05:21.227Z,20.75
2023-01-03T04:06:28.183Z,17.65
2023-01-03T04:07:29.961Z,16.83
2023-01-03T04:08:31.711Z,21.60
2023-01-03T04:09:33.690Z,21.17
2023-01-03T04:10:37.883Z,25.48
2023-01-03T04:11:40.265Z,26.92
2023-01-03T04:12:42.016Z,25.10
2023-01-03T04:13:43.781Z,22.52
2023-01-03T04:14:45.553Z,23.65
2023-01-03T04:15:47.294Z,21.20
2023-01-03T04:16:49.052Z,22.90
2023-01-03T04:17:50.769Z,23.63
2023-01-03T04:18:52.604Z,20.85
2023-01-03T04:19:54.345Z,18.17
2023-01-03T04:20:56.269Z,20.95
2023-01-03T04:21:57.992Z,20.08
2023-01-03T04:23:00.358Z,17.35
2023-01-03T04:24:02.856Z,19.25
2023-01-03T04:25:05.012Z,18.42
2023-01-03T04:26:06.715Z,17.63
2023-01-03T04:27:08.580Z,14.63
2023-01-03T04:28:10.455Z,16.33
2023-01-03T04:29:12.250Z,14.45
2023-01-03T04:30:14.093Z,25.55
2023-01-03T04:31:15.851Z,24.35
2023-01-03T04:32:17.639Z,25.90
2023-01-03T04:33:19.352Z,26.60
2023-01-03T04:34:21.171Z,26.27
2023-01-03T04:35:23.548Z,23.48
2023-01-03T04:36:25.256Z,25.70
2023-01-03T04:37:26.985Z,27.40
2023-01-03T04:38:28.699Z,28.95
2023-01-03T04:39:30.527Z,30.67
2023-01-03T04:40:34.917Z,27.55
2023-01-03T04:41:36.649Z,24.85
2023-01-03T04:42:56.854Z,28.02
2023-01-03T04:44:01.796Z,26.35
2023-01-03T04:45:03.970Z,29.75
2023-01-03T04:46:05.805Z,25.88
2023-01-03T04:47:07.584Z,25.17
2023-01-03T04:48:09.332Z,21.40
2023-01-03T04:49:11.579Z,25.50
2023-01-03T04:50:13.420Z,23.70
2023-01-03T04:51:15.655Z,27.10
2023-01-03T04:52:17.627Z,25.13
2023-01-03T04:53:19.740Z,22.15
2023-01-03T04:54:21.437Z,23.55
2023-01-03T04:55:23.308Z,23.98
2023-01-03T04:56:27.273Z,21.88
2023-01-03T04:57:29.003Z,23.02
2023-01-03T04:58:30.740Z,23.27
2023-01-03T04:59:32.425Z,19.88
2023-01-03T05:00:34.158Z,19.75
2023-01-03T05:01:36.008Z,18.02
2023-01-03T05:02:37.878Z,21.77
2023-01-03T05:03:39.679Z,20.02
2023-01-03T05:04:41.645Z,16.20
2023-01-03T05:05:43.685Z,16.88
2023-01-03T05:06:45.407Z,17.75
2023-01-03T05:07:47.111Z,17.88
2023-01-03T05:08:48.997Z,18.80
2023-01-03T05:09:50.683Z,19.10
2023-01-03T05:10:53.684Z,19.88
2023-01-03T05:11:56.368Z,17.73
2023-01-03T05:13:01.070Z,19.38
2023-01-03T05:14:02.939Z,21.60
2023-01-03T05:15:04.920Z,21.33
2023-01-03T05:16:08.968Z,17.27
2023-01-03T05:17:10.982Z,18.25
2023-01-03T05:18:12.845Z,20.35
2023-01-03T05:19:14.751Z,24.30
2023-01-03T05:20:34.998Z,20.90
2023-01-03T05:21:55.528Z,24.83
2023-01-03T05:23:16.225Z,23.15
2023-01-03T05:24:36.676Z,25.43
2023-01-03T05:25:50.531Z,19.98
2023-01-03T05:26:52.999Z,23.55
2023-01-03T05:27:57.386Z,20.13
2023-01-03T05:28:59.252Z,20.77
2023-01-03T05:30:01.095Z,23.20
2023-01-03T05:31:02.893Z,24.58
2023-01-03T05:32:05.225Z,19.48
2023-01-03T05:33:07.015Z,21.33
2023-01-03T05:34:08.813Z,20.20
2023-01-03T05:35:10.589Z,19.42
2023-01-03T05:36:12.381Z,23.73
2023-01-03T05:37:14.122Z,22.02
2023-01-03T05:38:15.866Z,28.08
2023-01-03T05:39:17.833Z,24.20
2023-01-03T05:40:19.527Z,23.00
2023-01-03T05:41:39.718Z,25.02
2023-01-03T05:42:41.457Z,22.15
2023-01-03T05:43:43.289Z,26.55
2023-01-03T05:44:45.031Z,26.85
2023-01-03T05:45:52.834Z,29.50
2023-01-03T05:46:54.647Z,26.98
2023-01-03T05:47:59.568Z,26.80
2023-01-03T05:49:01.339Z,25.95
2023-01-03T05:50:03.133Z,24.38
2023-01-03T05:51:04.894Z,30.92
2023-01-03T05:52:06.602Z,29.92
2023-01-03T05:53:08.413Z,25.88
2023-01-03T05:54:15.306Z,24.30
2023-01-03T05:55:17.251Z,20.52
2023-01-03T05:56:18.947Z,20.92
2023-01-03T05:57:20.730Z,20.08
2023-01-03T05:58:22.436Z,19.05
2023-01-03T05:59:24.338Z,20.70
2023-01-03T06:00:26.040Z,21.58
2023-01-03T06:01:28.852Z,22.52
2023-01-03T06:02:30.712Z,26.08
2023-01-03T06:03:32.449Z,19.40
2023-01-03T06:04:34.258Z,21.02
2023-01-03T06:05:35.980Z,20.98
2023-01-03T06:06:37.672Z,22.50
2023-01-03T06:07:39.810Z,21.17
2023-01-03T06:08:41.923Z,18.90
2023-01-03T06:09:43.632Z,21.80
2023-01-03T06:10:45.390Z,21.90
2023-01-03T06:11:47.436Z,23.85
2023-01-03T06:12:49.161Z,23.88
2023-01-03T06:13:50.945Z,24.10
2023-01-03T06:14:52.653Z,24.85
2023-01-03T06:16:13.264Z,25.40
2023-01-03T06:17:33.841Z,28.20
2023-01-03T06:18:36.505Z,29.95
2023-01-03T06:19:38.226Z,27.13
2023-01-03T06:20:40.003Z,28.35
2023-01-03T06:21:41.736Z,30.55
2023-01-03T06:22:43.831Z,33.70
2023-01-03T06:23:47.689Z,33.10
2023-01-03T06:24:49.497Z,34.95
2023-01-03T06:25:51.187Z,29.85
2023-01-03T06:26:52.948Z,38.85
2023-01-03T06:27:55.850Z,31.17
2023-01-03T06:28:57.628Z,32.70
2023-01-03T06:29:59.765Z,30.25
2023-01-03T06:31:01.565Z,32.45
2023-01-03T06:32:08.849Z,29.77
2023-01-03T06:33:12.277Z,31.58
2023-01-03T06:34:14.026Z,30.00
2023-01-03T06:35:15.798Z,30.90
2023-01-03T06:36:20.603Z,37.45
2023-01-03T06:37:22.413Z,33.50
2023-01-03T06:38:24.105Z,39.67
2023-01-03T06:39:25.825Z,30.67
2023-01-03T06:40:32.078Z,35.65
2023-01-03T06:44:43.738Z,32.72
2023-01-03T06:46:04.614Z,33.40
2023-01-03T06:47:25.301Z,33.42
2023-01-03T06:48:45.856Z,35.63
2023-01-03T06:50:05.807Z,36.28
2023-01-03T06:51:29.245Z,31.67
2023-01-03T06:52:49.688Z,32.95
2023-01-03T06:53:51.417Z,36.50
2023-01-03T06:54:53.570Z,32.80
2023-01-03T06:55:57.400Z,35.95
2023-01-03T06:56:59.744Z,33.05
2023-01-03T06:58:01.414Z,28.20
2023-01-03T06:59:03.106Z,27.58
2023-01-03T07:00:05.521Z,25.08
2023-01-03T07:01:07.507Z,28.63
2023-01-03T07:02:09.394Z,25.90
2023-01-03T07:03:11.892Z,35.60
2023-01-03T07:04:14.327Z,34.40
2023-01-03T07:05:16.088Z,41.60
2023-01-03T07:06:17.815Z,34.97
2023-01-03T07:07:19.548Z,35.90
2023-01-03T07:08:21.248Z,33.15
2023-01-03T07:09:24.345Z,30.55
2023-01-03T07:10:26.079Z,29.42
2023-01-03T07:11:27.828Z,29.50
2023-01-03T07:12:48.374Z,32.97
2023-01-03T07:14:00.836Z,36.78
2023-01-03T07:15:02.634Z,35.72
2023-01-03T07:16:04.556Z,39.00
2023-01-03T07:17:06.272Z,37.70
2023-01-03T07:18:07.966Z,33.58
2023-01-03T07:19:13.547Z,31.58
2023-01-03T07:20:15.337Z,38.78
2023-01-03T07:21:17.085Z,33.35
2023-01-03T07:22:18.789Z,29.33
2023-01-03T07:23:20.746Z,30.70
2023-01-03T07:24:22.503Z,28.98
2023-01-03T07:25:24.229Z,26.80
2023-01-03T07:26:25.980Z,28.75
2023-01-03T07:27:27.702Z,27.83
2023-01-03T07:28:29.445Z,29.90
2023-01-03T07:29:31.191Z,27.80
2023-01-03T07:30:37.149Z,23.50
2023-01-03T07:31:40.533Z,23.30
2023-01-03T07:32:42.324Z,27.00
2023-01-03T07:33:45.301Z,21.73
2023-01-03T07:34:47.022Z,23.63
2023-01-03T07:35:48.742Z,24.65
2023-01-03T07:36:50.439Z,26.77
2023-01-03T07:37:52.127Z,34.05
2023-01-03T07:38:55.375Z,34.50
2023-01-03T07:39:57.073Z,36.85
2023-01-03T07:40:59.847Z,44.22
2023-01-03T07:42:20.231Z,38.95
2023-01-03T07:43:37.304Z,41.03
2023-01-03T07:44:39.043Z,37.22
2023-01-03T07:45:44.959Z,31.13
2023-01-03T07:46:46.819Z,27.42
2023-01-03T07:47:48.565Z,28.67
2023-01-03T07:48:53.219Z,24.33
2023-01-03T07:49:54.907Z,21.83
2023-01-03T07:50:58.213Z,21.90
2023-01-03T07:51:59.971Z,18.67
2023-01-03T07:53:01.708Z,21.35
2023-01-03T07:54:03.514Z,20.10
2023-01-03T07:55:05.638Z,22.63
2023-01-03T07:56:16.105Z,19.60
2023-01-03T07:57:17.806Z,21.35
2023-01-03T07:58:19.702Z,20.67
2023-01-03T07:59:21.406Z,18.15
2023-01-03T08:00:23.241Z,18.15
2023-01-03T08:01:25.488Z,19.65
2023-01-03T08:02:27.459Z,20.90
2023-01-03T08:03:29.256Z,20.30
2023-01-03T08:04:31.039Z,21.02
2023-01-03T08:05:34.769Z,17.50
2023-01-03T08:06:36.529Z,16.98
2023-01-03T08:07:38.246Z,21.13
2023-01-03T08:08:40.547Z,23.40
2023-01-03T08:10:00.794Z,18.42
2023-01-03T08:11:21.179Z,17.63
2023-01-03T08:12:41.603Z,20.75
2023-01-03T08:13:44.096Z,17.60
2023-01-03T08:14:45.857Z,21.00
2023-01-03T08:15:55.728Z,22.13
2023-01-03T08:16:57.579Z,18.85
2023-01-03T08:17:59.276Z,14.80
2023-01-03T08:19:01.014Z,14.13
2023-01-03T08:20:02.818Z,11.98
2023-01-03T08:21:04.841Z,17.75
2023-01-03T08:22:06.568Z,24.42
2023-01-03T08:23:09.008Z,21.50
2023-01-03T08:24:10.872Z,20.92
2023-01-03T08:25:12.595Z,20.08
2023-01-03T08:26:16.345Z,19.95
2023-01-03T08:27:18.066Z,22.40
2023-01-03T08:28:19.808Z,23.42
2023-01-03T08:29:21.528Z,18.27
2023-01-03T08:30:23.916Z,21.50
2023-01-03T08:31:28.157Z,20.98
2023-01-03T08:32:32.201Z,15.38
2023-01-03T08:33:44.137Z,13.38
2023-01-03T08:34:51.489Z,14.48
2023-01-03T08:36:00.263Z,15.50
2023-01-03T08:37:07.869Z,13.40
2023-01-03T08:38:14.455Z,16.35
2023-01-03T08:39:20.372Z,15.43
2023-01-03T08:40:22.213Z,13.82
2023-01-03T08:41:27.817Z,10.88
2023-01-03T08:42:29.951Z,13.43
2023-01-03T08:43:36.723Z,12.73
2023-01-03T08:44:39.238Z,13.82
2023-01-03T08:45:41.136Z,11.25
2023-01-03T08:46:48.356Z,12.77
2023-01-03T08:47:50.193Z,12.40
2023-01-03T08:48:51.987Z,12.82
2023-01-03T08:49:54.779Z,14.70
2023-01-03T08:50:56.503Z,13.48
2023-01-03T08:51:58.296Z,11.93
2023-01-03T08:53:00.109Z,13.60
2023-01-03T08:54:01.884Z,12.32
2023-01-03T08:55:04.986Z,14.32
2023-01-03T08:56:07.294Z,12.15
2023-01-03T08:57:09.002Z,11.70
2023-01-03T08:58:10.736Z,15.27
2023-01-03T08:59:12.547Z,15.05
2023-01-03T09:00:15.012Z,11.98
2023-01-03T09:01:17.474Z,11.38
2023-01-03T09:02:19.481Z,12.73
2023-01-03T09:03:21.398Z,14.95
2023-01-03T09:04:23.324Z,14.07
2023-01-03T09:05:25.157Z,18.92
2023-01-03T09:06:26.867Z,15.82
2023-01-03T09:07:28.612Z,15.88
2023-01-03T09:08:34.237Z,14.52
2023-01-03T09:09:36.001Z,15.20
2023-01-03T09:10:47.036Z,18.50
2023-01-03T09:11:49.531Z,17.85
2023-01-03T09:12:51.930Z,14.45
2023-01-03T09:13:55.599Z,12.75
2023-01-03T09:14:57.383Z,13.80
2023-01-03T09:16:08.257Z,15.18
2023-01-03T09:17:10.128Z,16.80
2023-01-03T09:18:11.998Z,18.73
2023-01-03T09:19:13.715Z,15.20
2023-01-03T09:20:18.827Z,16.35
2023-01-03T09:21:20.653Z,16.27
2023-01-03T09:22:22.408Z,15.75
2023-01-03T09:23:24.149Z,16.25
2023-01-03T09:24:25.873Z,18.25
2023-01-03T09:25:31.684Z,16.83
2023-01-03T09:26:36.670Z,15.73
2023-01-03T09:27:38.393Z,17.83
2023-01-03T09:28:40.243Z,16.83
2023-01-03T09:29:41.943Z,17.70
2023-01-03T09:30:43.687Z,18.65
2023-01-03T09:31:46.035Z,14.57
2023-01-03T09:32:51.022Z,16.20
2023-01-03T09:33:52.747Z,17.83
2023-01-03T09:34:54.448Z,18.05
2023-01-03T09:35:56.239Z,16.35
2023-01-03T09:36:57.951Z,16.50
2023-01-03T09:37:59.676Z,23.70
2023-01-03T09:39:01.367Z,19.65
2023-01-03T09:40:04.262Z,17.05
2023-01-03T09:41:09.172Z,18.15
2023-01-03T09:42:41.772Z,17.35
2023-01-03T09:43:48.106Z,16.63
2023-01-03T09:44:49.939Z,18.30
2023-01-03T09:46:00.039Z,18.05
2023-01-03T09:47:03.532Z,20.03
2023-01-03T09:48:06.441Z,17.98
2023-01-03T09:49:08.235Z,17.10
2023-01-03T09:50:44.416Z,17.92
2023-01-03T09:52:04.690Z,13.65
2023-01-03T09:53:25.117Z,15.90
2023-01-03T09:54:55.902Z,15.35
2023-01-03T09:56:18.929Z,15.25
2023-01-03T09:57:53.133Z,18.20
2023-01-03T09:59:17.660Z,20.35
2023-01-03T10:00:47.059Z,18.70
2023-01-03T10:02:15.149Z,14.77
2023-01-03T10:03:50.883Z,13.82
2023-01-03T10:05:27.152Z,14.98
2023-01-03T10:06:51.926Z,21.20
2023-01-03T10:08:14.765Z,17.50
2023-01-03T10:09:34.853Z,15.55
2023-01-03T10:10:59.632Z,19.08
2023-01-03T10:12:16.654Z,17.30
2023-01-03T10:13:50.178Z,16.15
2023-01-03T10:15:13.127Z,17.58
2023-01-03T10:16:56.824Z,14.80
2023-01-03T10:18:23.916Z,16.02
2023-01-03T10:19:35.317Z,14.20
2023-01-03T10:20:55.481Z,16.55
2023-01-03T10:22:10.955Z,18.23
2023-01-03T10:23:12.735Z,18.60
2023-01-03T10:24:25.504Z,18.88
2023-01-03T10:25:29.101Z,18.38
2023-01-03T10:26:33.447Z,16.92
2023-01-03T10:27:57.444Z,19.55
2023-01-03T10:28:59.965Z,16.55
2023-01-03T10:30:05.442Z,17.15
2023-01-03T10:31:09.877Z,15.02
2023-01-03T10:32:23.546Z,15.60
2023-01-03T10:33:25.197Z,16.40
2023-01-03T10:34:26.963Z,15.52
2023-01-03T10:35:32.094Z,15.48
2023-01-03T10:36:33.802Z,13.75
2023-01-03T10:37:35.516Z,13.90
2023-01-03T10:38:44.853Z,14.85
2023-01-03T10:40:01.967Z,14.95
2023-01-03T10:41:04.999Z,17.13
2023-01-03T10:42:06.743Z,12.40
2023-01-03T10:43:56.676Z,13.55
2023-01-03T10:45:01.917Z,12.40
2023-01-03T10:46:07.032Z,15.93
2023-01-03T10:47:11.438Z,16.10
2023-01-03T10:48:14.629Z,16.50
2023-01-03T10:49:30.234Z,13.68
2023-01-03T10:50:37.863Z,16.17
2023-01-03T10:52:06.566Z,15.02
2023-01-03T10:53:09.573Z,12.95
2023-01-03T10:54:26.220Z,14.88
2023-01-03T10:55:28.615Z,13.65
2023-01-03T10:56:31.131Z,11.25
2023-01-03T10:57:40.563Z,14.07
2023-01-03T10:58:42.522Z,19.27
2023-01-03T10:59:49.732Z,15.20
2023-01-03T11:00:53.557Z,14.80
2023-01-03T11:02:09.123Z,16.30
2023-01-03T11:03:16.997Z,15.77
2023-01-03T11:04:20.032Z,13.68
2023-01-03T11:05:25.181Z,14.20
2023-01-03T11:06:27.201Z,15.23
2023-01-03T11:07:29.394Z,14.52
2023-01-03T11:08:37.363Z,11.00
2023-01-03T11:09:51.728Z,14.00
2023-01-03T11:10:59.134Z,15.20
2023-01-03T11:12:11.752Z,12.90
2023-01-03T11:13:41.183Z,12.60
2023-01-03T11:14:56.090Z,14.23
2023-01-03T11:16:00.039Z,10.63
2023-01-03T11:17:04.284Z,11.95
2023-01-03T11:18:30.268Z,13.68
2023-01-03T11:19:34.102Z,13.73
2023-01-03T11:20:55.843Z,13.68
2023-01-03T11:22:32.310Z,10.68
2023-01-03T11:24:01.867Z,13.73
2023-01-03T11:25:18.699Z,14.50
2023-01-03T11:26:45.680Z,17.13
2023-01-03T11:28:18.282Z,11.68
2023-01-03T11:30:04.861Z,15.05
2023-01-03T11:31:16.378Z,18.45
2023-01-03T11:32:42.845Z,14.30
2023-01-03T11:34:21.643Z,16.40
2023-01-03T11:35:29.240Z,17.65
2023-01-03T11:36:49.680Z,18.73
2023-01-03T11:38:18.850Z,16.23
2023-01-03T11:39:35.536Z,14.00
2023-01-03T11:40:40.197Z,12.55
2023-01-03T11:42:12.318Z,13.00
2023-01-03T11:43:25.073Z,16.30
2023-01-03T11:44:51.332Z,18.65
2023-01-03T11:46:11.006Z,15.02
2023-01-03T11:47:52.330Z,15.93
2023-01-03T11:49:04.012Z,29.77
2023-01-03T11:50:08.665Z,19.58
2023-01-03T11:51:35.849Z,22.55
2023-01-03T11:52:45.399Z,27.17
2023-01-03T11:54:03.127Z,25.70
2023-01-03T11:55:13.768Z,22.98
2023-01-03T11:56:25.788Z,16.85
2023-01-03T11:58:15.797Z,16.38
2023-01-03T11:59:23.227Z,15.93
2023-01-03T12:00:27.646Z,26.25
2023-01-03T12:02:08.257Z,27.20
2023-01-03T12:03:34.867Z,25.27
2023-01-03T12:04:48.735Z,24.38
2023-01-03T12:06:06.139Z,27.05
2023-01-03T12:09:06.570Z,26.55
2023-01-03T12:10:58.792Z,28.15
2023-01-03T12:12:07.791Z,26.85
2023-01-03T12:13:15.439Z,23.92
2023-01-03T12:14:25.461Z,23.48
2023-01-03T12:15:43.723Z,24.45
2023-01-03T12:16:51.488Z,30.75
2023-01-03T12:18:10.534Z,27.27
2023-01-03T12:19:30.355Z,26.70
2023-01-03T12:20:38.816Z,30.67
2023-01-03T12:21:50.359Z,31.08
2023-01-03T12:23:15.925Z,26.63
2023-01-03T12:24:29.510Z,28.10
2023-01-03T12:25:36.467Z,31.13
2023-01-03T12:26:42.245Z,35.17
2023-01-03T12:28:02.808Z,33.88
2023-01-03T12:29:37.162Z,23.83
2023-01-03T12:31:09.272Z,24.55
2023-01-03T12:32:18.681Z,25.73
2023-01-03T12:33:26.410Z,28.27
2023-01-03T12:34:50.383Z,31.50
2023-01-03T12:36:18.429Z,28.77
2023-01-03T12:37:24.393Z,32.25
2023-01-03T12:38:30.891Z,31.75
2023-01-03T12:39:47.941Z,28.55
2023-01-03T12:40:58.939Z,26.50
2023-01-03T12:42:06.955Z,27.38
2023-01-03T12:43:25.332Z,29.02
2023-01-03T12:44:37.589Z,33.60
2023-01-03T12:45:56.630Z,25.95
2023-01-03T12:47:01.538Z,24.45
2023-01-03T12:48:13.484Z,26.58
2023-01-03T12:49:31.246Z,21.48
2023-01-03T12:50:48.970Z,26.02
2023-01-03T12:51:50.708Z,21.98
2023-01-03T12:53:26.203Z,22.42
2023-01-03T12:54:42.958Z,21.63
2023-01-03T12:56:11.815Z,20.42
2023-01-03T12:57:46.154Z,17.67
2023-01-03T12:59:12.351Z,21.10
2023-01-03T13:00:20.936Z,19.17
2023-01-03T13:01:41.133Z,17.80
2023-01-03T13:03:02.219Z,21.30
2023-01-03T13:04:19.195Z,17.63
2023-01-03T13:05:47.744Z,21.27
2023-01-03T13:06:54.606Z,17.00
2023-01-03T13:08:10.847Z,18.15
2023-01-03T13:09:22.973Z,17.75
2023-01-03T13:10:31.241Z,15.85
2023-01-03T13:11:47.729Z,17.63
2023-01-03T13:12:53.290Z,18.02
2023-01-03T13:14:03.532Z,16.63
2023-01-03T13:15:23.243Z,17.97
2023-01-03T13:16:34.320Z,20.73
2023-01-03T13:18:48.504Z,13.65
2023-01-03T13:20:14.691Z,19.55
2023-01-03T13:21:54.623Z,17.23
2023-01-03T13:22:57.493Z,15.88
2023-01-03T13:24:00.218Z,14.68
2023-01-03T13:25:26.578Z,13.98
2023-01-03T13:26:29.337Z,16.75
2023-01-03T13:27:38.167Z,15.25
2023-01-03T13:28:40.585Z,13.73
2023-01-03T13:29:50.122Z,14.80
2023-01-03T13:31:14.548Z,12.85
2023-01-03T13:32:22.417Z,15.70
2023-01-03T13:33:24.183Z,13.57
2023-01-03T13:34:25.837Z,18.50
2023-01-03T13:35:53.158Z,14.27
2023-01-03T13:37:06.971Z,12.30
2023-01-03T13:38:24.101Z,14.07
2023-01-03T13:39:52.967Z,13.68
2023-01-03T13:41:18.224Z,12.32
2023-01-03T13:42:23.312Z,15.98
2023-01-03T13:43:40.027Z,12.80
2023-01-03T13:44:42.220Z,14.68
2023-01-03T13:45:43.866Z,11.27
2023-01-03T13:46:47.920Z,13.63
2023-01-03T13:47:51.434Z,16.98
2023-01-03T13:48:56.888Z,13.63
2023-01-03T13:49:58.967Z,12.93
2023-01-03T13:51:06.005Z,17.52
2023-01-03T13:52:37.930Z,13.07
2023-01-03T13:53:51.863Z,12.55
2023-01-03T13:54:58.672Z,14.80
2023-01-03T13:56:19.772Z,14.20
2023-01-03T13:57:37.649Z,15.32
2023-01-03T13:59:14.927Z,16.85
2023-01-03T14:00:21.669Z,17.50
2023-01-03T14:01:49.540Z,22.27
2023-01-03T14:03:40.258Z,20.08
2023-01-03T14:05:00.133Z,18.27
2023-01-03T14:06:30.981Z,17.23
2023-01-03T14:07:59.936Z,20.25
2023-01-03T14:09:19.679Z,17.27
2023-01-03T14:10:52.036Z,19.63
2023-01-03T14:12:25.368Z,19.77
2023-01-03T14:13:41.542Z,18.35
2023-01-03T14:14:44.117Z,20.15
2023-01-03T14:15:47.562Z,19.88
2023-01-03T14:16:56.070Z,17.05
2023-01-03T14:18:21.023Z,19.80
2023-01-03T14:19:30.778Z,23.00
2023-01-03T14:20:36.224Z,17.98
2023-01-03T14:22:28.090Z,25.30
2023-01-03T14:23:59.107Z,20.85
2023-01-03T14:24:57.427Z,27.08
2023-01-03T14:26:14.881Z,24.33
2023-01-03T14:27:20.704Z,24.40
2023-01-03T14:28:29.881Z,30.35
2023-01-03T14:29:41.125Z,48.35
2023-01-03T14:31:53.573Z,49.50
2023-01-03T14:32:55.459Z,56.60
2023-01-03T14:34:00.644Z,43.88
2023-01-03T14:35:03.431Z,44.00
2023-01-03T14:36:13.806Z,42.35
2023-01-03T14:37:18.409Z,38.28
2023-01-03T14:38:25.994Z,38.13
2023-01-03T14:40:33.543Z,40.72
2023-01-03T14:41:38.577Z,41.58
2023-01-03T14:42:49.334Z,38.70
2023-01-03T14:44:04.303Z,42.08
2023-01-03T14:45:08.831Z,40.33
2023-01-03T14:46:12.405Z,36.25
2023-01-03T14:47:17.737Z,37.75
2023-01-03T14:48:20.439Z,34.90
2023-01-03T14:49:37.037Z,31.88
2023-01-03T14:50:42.461Z,33.97
2023-01-03T14:51:44.198Z,36.58
2023-01-03T14:52:51.076Z,36.40
2023-01-03T14:53:53.223Z,32.17
2023-01-03T14:55:03.424Z,33.63
2023-01-03T14:56:07.028Z,35.88
2023-01-03T14:57:17.444Z,41.10
2023-01-03T14:58:33.741Z,40.13